KICL/ICL METAR and TAF weather

Enter ICAO airport designator
Station Type Date Time Source
KICL METAR 2022/01/23 12:15 UTC NOAA

KICL 231215Z AUTO 02016G23KT 10SM SCT019 M06/M09 A3012 RMK AO2


Station Type Date Time Source
KICL Decoded METAR 2022/01/23 12:15 UTC NOAA

Clarinda, IA, United States (KICL) 40-43N 095-02W
Jan 23, 2022 - 07:15 AM EST / 2022.01.23 1215 UTC
Wind: from the NNE (020 degrees) at 18 MPH (16 KT) gusting to 26 MPH (23 KT):0
Visibility: 10 mile(s):0
Sky conditions: partly cloudy
Temperature: 21 F (-6 C)
Windchill: 6 F (-14 C):1
Dew Point: 15 F (-9 C)
Relative Humidity: 79%
Pressure (altimeter): 30.12 in. Hg (1019 hPa)
ob: KICL 231215Z AUTO 02016G23KT 10SM SCT019 M06/M09 A3012 RMK AO2
cycle: 12

Station Type Date Time Source
KICL TAF UTC NOAA

Error!

Example: see airport list